sensor_id;sensor_type;location;lat;lon;timestamp;temperature;humidity
75738;DHT22;64356;45.638;13.764;2023-03-25T00:01:11;21.20;57.10
75738;DHT22;64356;45.638;13.764;2023-03-25T00:03:39;21.20;57.20
75738;DHT22;64356;45.638;13.764;2023-03-25T00:06:12;21.20;57.10
75738;DHT22;64356;45.638;13.764;2023-03-25T00:08:38;21.20;57.20
75738;DHT22;64356;45.638;13.764;2023-03-25T00:11:04;21.20;57.20
75738;DHT22;64356;45.638;13.764;2023-03-25T00:13:31;21.20;57.20
75738;DHT22;64356;45.638;13.764;2023-03-25T00:15:59;21.20;57.20
75738;DHT22;64356;45.638;13.764;2023-03-25T00:18:27;21.20;57.20
75738;DHT22;64356;45.638;13.764;2023-03-25T00:20:54;21.20;57.30
75738;DHT22;64356;45.638;13.764;2023-03-25T00:23:21;21.20;57.30
75738;DHT22;64356;45.638;13.764;2023-03-25T00:25:48;21.20;57.30
75738;DHT22;64356;45.638;13.764;2023-03-25T00:28:15;21.20;57.30
75738;DHT22;64356;45.638;13.764;2023-03-25T00:30:42;21.20;57.30
75738;DHT22;64356;45.638;13.764;2023-03-25T00:33:08;21.20;57.30
75738;DHT22;64356;45.638;13.764;2023-03-25T00:35:40;21.20;57.30
75738;DHT22;64356;45.638;13.764;2023-03-25T00:38:12;21.20;57.30
75738;DHT22;64356;45.638;13.764;2023-03-25T00:40:38;21.20;57.30
75738;DHT22;64356;45.638;13.764;2023-03-25T00:43:05;21.20;57.30
75738;DHT22;64356;45.638;13.764;2023-03-25T00:45:31;21.10;57.30
75738;DHT22;64356;45.638;13.764;2023-03-25T00:47:57;21.20;57.40
75738;DHT22;64356;45.638;13.764;2023-03-25T00:50:23;21.20;57.40
75738;DHT22;64356;45.638;13.764;2023-03-25T00:52:49;21.10;57.40
75738;DHT22;64356;45.638;13.764;2023-03-25T00:55:16;21.10;57.40
75738;DHT22;64356;45.638;13.764;2023-03-25T00:57:42;21.20;57.40
75738;DHT22;64356;45.638;13.764;2023-03-25T01:00:10;21.20;57.40
75738;DHT22;64356;45.638;13.764;2023-03-25T01:02:37;21.10;57.40
75738;DHT22;64356;45.638;13.764;2023-03-25T01:05:07;21.20;57.40
75738;DHT22;64356;45.638;13.764;2023-03-25T01:07:33;21.20;57.40
75738;DHT22;64356;45.638;13.764;2023-03-25T01:10:00;21.20;57.50
75738;DHT22;64356;45.638;13.764;2023-03-25T01:12:26;21.20;57.50
75738;DHT22;64356;45.638;13.764;2023-03-25T01:14:53;21.10;57.50
75738;DHT22;64356;45.638;13.764;2023-03-25T01:17:18;21.10;57.50
75738;DHT22;64356;45.638;13.764;2023-03-25T01:19:44;21.20;57.50
75738;DHT22;64356;45.638;13.764;2023-03-25T01:22:10;21.20;57.60
75738;DHT22;64356;45.638;13.764;2023-03-25T01:24:36;21.10;57.50
75738;DHT22;64356;45.638;13.764;2023-03-25T01:27:02;21.10;57.50
75738;DHT22;64356;45.638;13.764;2023-03-25T01:29:29;21.10;57.50
75738;DHT22;64356;45.638;13.764;2023-03-25T01:31:55;21.10;57.50
75738;DHT22;64356;45.638;13.764;2023-03-25T01:34:21;21.20;57.60
75738;DHT22;64356;45.638;13.764;2023-03-25T01:36:47;21.20;57.60
75738;DHT22;64356;45.638;13.764;2023-03-25T01:39:15;21.10;57.60
75738;DHT22;64356;45.638;13.764;2023-03-25T01:41:43;21.10;57.60
75738;DHT22;64356;45.638;13.764;2023-03-25T01:46:40;21.10;57.60
75738;DHT22;64356;45.638;13.764;2023-03-25T01:49:13;21.10;57.60
75738;DHT22;64356;45.638;13.764;2023-03-25T01:51:43;21.10;57.70
75738;DHT22;64356;45.638;13.764;2023-03-25T01:54:12;21.10;57.70
75738;DHT22;64356;45.638;13.764;2023-03-25T01:56:42;21.10;57.70
75738;DHT22;64356;45.638;13.764;2023-03-25T01:59:12;21.10;57.70
75738;DHT22;64356;45.638;13.764;2023-03-25T02:01:39;21.10;57.80
75738;DHT22;64356;45.638;13.764;2023-03-25T02:04:06;21.10;57.70
75738;DHT22;64356;45.638;13.764;2023-03-25T02:09:06;21.10;57.70
75738;DHT22;64356;45.638;13.764;2023-03-25T02:11:34;21.10;57.60
75738;DHT22;64356;45.638;13.764;2023-03-25T02:14:03;21.10;57.70
75738;DHT22;64356;45.638;13.764;2023-03-25T02:16:54;21.10;57.80
75738;DHT22;64356;45.638;13.764;2023-03-25T02:25:15;21.10;57.80
75738;DHT22;64356;45.638;13.764;2023-03-25T02:38:52;21.10;57.80
75738;DHT22;64356;45.638;13.764;2023-03-25T02:41:35;21.10;57.90
75738;DHT22;64356;45.638;13.764;2023-03-25T02:44:14;21.10;57.90
75738;DHT22;64356;45.638;13.764;2023-03-25T02:46:47;21.10;57.90
75738;DHT22;64356;45.638;13.764;2023-03-25T02:49:41;21.10;58.30
75738;DHT22;64356;45.638;13.764;2023-03-25T02:52:26;21.10;57.80
75738;DHT22;64356;45.638;13.764;2023-03-25T02:54:54;21.10;57.90
75738;DHT22;64356;45.638;13.764;2023-03-25T02:57:24;21.10;57.90
75738;DHT22;64356;45.638;13.764;2023-03-25T02:59:51;21.10;57.90
75738;DHT22;64356;45.638;13.764;2023-03-25T03:02:20;21.10;57.90
75738;DHT22;64356;45.638;13.764;2023-03-25T03:04:48;21.10;57.90
75738;DHT22;64356;45.638;13.764;2023-03-25T03:07:22;21.10;57.90
75738;DHT22;64356;45.638;13.764;2023-03-25T03:10:17;21.10;57.90
75738;DHT22;64356;45.638;13.764;2023-03-25T03:13:06;21.10;57.90
75738;DHT22;64356;45.638;13.764;2023-03-25T03:15:42;21.10;57.80
75738;DHT22;64356;45.638;13.764;2023-03-25T03:21:19;21.10;57.80
75738;DHT22;64356;45.638;13.764;2023-03-25T03:26:45;21.10;57.80
75738;DHT22;64356;45.638;13.764;2023-03-25T03:29:16;21.10;57.80
75738;DHT22;64356;45.638;13.764;2023-03-25T03:34:56;21.00;57.70
75738;DHT22;64356;45.638;13.764;2023-03-25T03:37:38;21.00;57.70
75738;DHT22;64356;45.638;13.764;2023-03-25T03:40:07;21.10;57.70
75738;DHT22;64356;45.638;13.764;2023-03-25T03:42:41;21.10;57.70
75738;DHT22;64356;45.638;13.764;2023-03-25T03:45:37;21.10;57.70
75738;DHT22;64356;45.638;13.764;2023-03-25T03:48:13;21.00;57.70
75738;DHT22;64356;45.638;13.764;2023-03-25T03:50:48;21.10;57.60
75738;DHT22;64356;45.638;13.764;2023-03-25T03:53:25;21.00;57.60
75738;DHT22;64356;45.638;13.764;2023-03-25T03:56:14;21.00;57.70
75738;DHT22;64356;45.638;13.764;2023-03-25T03:58:44;21.10;57.70
75738;DHT22;64356;45.638;13.764;2023-03-25T04:01:21;21.00;57.70
75738;DHT22;64356;45.638;13.764;2023-03-25T04:03:58;21.10;57.70
75738;DHT22;64356;45.638;13.764;2023-03-25T04:07:07;21.00;57.60
75738;DHT22;64356;45.638;13.764;2023-03-25T04:09:47;21.00;57.60
75738;DHT22;64356;45.638;13.764;2023-03-25T04:12:25;21.00;57.60
75738;DHT22;64356;45.638;13.764;2023-03-25T04:14:53;21.00;57.60
75738;DHT22;64356;45.638;13.764;2023-03-25T04:17:20;21.00;57.60
75738;DHT22;64356;45.638;13.764;2023-03-25T04:19:46;21.00;57.60
75738;DHT22;64356;45.638;13.764;2023-03-25T04:22:15;21.00;57.60
75738;DHT22;64356;45.638;13.764;2023-03-25T04:24:41;21.00;57.60
75738;DHT22;64356;45.638;13.764;2023-03-25T04:27:08;21.00;57.60
75738;DHT22;64356;45.638;13.764;2023-03-25T04:29:38;21.00;57.60
75738;DHT22;64356;45.638;13.764;2023-03-25T04:32:05;21.00;58.10
75738;DHT22;64356;45.638;13.764;2023-03-25T04:34:31;21.00;57.50
75738;DHT22;64356;45.638;13.764;2023-03-25T04:36:56;21.00;57.50
75738;DHT22;64356;45.638;13.764;2023-03-25T04:39:23;21.00;57.60
75738;DHT22;64356;45.638;13.764;2023-03-25T04:41:50;21.00;57.50
75738;DHT22;64356;45.638;13.764;2023-03-25T04:44:18;21.00;57.50
75738;DHT22;64356;45.638;13.764;2023-03-25T04:46:45;21.00;57.40
75738;DHT22;64356;45.638;13.764;2023-03-25T04:49:19;21.00;57.40
75738;DHT22;64356;45.638;13.764;2023-03-25T04:51:50;21.00;57.50
75738;DHT22;64356;45.638;13.764;2023-03-25T04:54:17;21.00;57.50
75738;DHT22;64356;45.638;13.764;2023-03-25T04:56:43;21.00;57.50
75738;DHT22;64356;45.638;13.764;2023-03-25T04:59:09;21.00;57.50
75738;DHT22;64356;45.638;13.764;2023-03-25T05:01:36;21.00;57.50
75738;DHT22;64356;45.638;13.764;2023-03-25T05:04:07;21.00;57.50
75738;DHT22;64356;45.638;13.764;2023-03-25T05:06:38;21.00;57.50
75738;DHT22;64356;45.638;13.764;2023-03-25T05:09:05;21.00;57.50
75738;DHT22;64356;45.638;13.764;2023-03-25T05:11:33;21.00;57.40
75738;DHT22;64356;45.638;13.764;2023-03-25T05:13:59;21.00;57.40
75738;DHT22;64356;45.638;13.764;2023-03-25T05:16:25;21.00;57.30
75738;DHT22;64356;45.638;13.764;2023-03-25T05:18:51;21.00;57.30
75738;DHT22;64356;45.638;13.764;2023-03-25T05:21:16;21.00;57.40
75738;DHT22;64356;45.638;13.764;2023-03-25T05:23:42;21.00;57.50
75738;DHT22;64356;45.638;13.764;2023-03-25T05:26:08;21.00;57.40
75738;DHT22;64356;45.638;13.764;2023-03-25T05:28:37;21.00;57.30
75738;DHT22;64356;45.638;13.764;2023-03-25T05:31:02;21.00;57.30
75738;DHT22;64356;45.638;13.764;2023-03-25T05:33:34;21.00;57.40
75738;DHT22;64356;45.638;13.764;2023-03-25T05:36:03;21.00;57.40
75738;DHT22;64356;45.638;13.764;2023-03-25T05:38:28;21.00;57.40
75738;DHT22;64356;45.638;13.764;2023-03-25T05:40:54;21.00;57.30
75738;DHT22;64356;45.638;13.764;2023-03-25T05:43:21;21.00;57.40
75738;DHT22;64356;45.638;13.764;2023-03-25T05:45:47;21.00;57.40
75738;DHT22;64356;45.638;13.764;2023-03-25T05:48:13;21.00;57.40
75738;DHT22;64356;45.638;13.764;2023-03-25T05:50:39;21.00;57.40
75738;DHT22;64356;45.638;13.764;2023-03-25T05:53:11;21.00;57.40
75738;DHT22;64356;45.638;13.764;2023-03-25T05:55:37;21.00;57.40
75738;DHT22;64356;45.638;13.764;2023-03-25T05:58:03;21.00;57.50
75738;DHT22;64356;45.638;13.764;2023-03-25T06:00:29;21.00;57.50
75738;DHT22;64356;45.638;13.764;2023-03-25T06:02:55;21.00;57.50
75738;DHT22;64356;45.638;13.764;2023-03-25T06:05:21;21.00;57.60
75738;DHT22;64356;45.638;13.764;2023-03-25T06:07:48;21.00;57.50
75738;DHT22;64356;45.638;13.764;2023-03-25T06:10:15;20.90;57.50
75738;DHT22;64356;45.638;13.764;2023-03-25T06:12:45;21.00;57.60
75738;DHT22;64356;45.638;13.764;2023-03-25T06:15:12;21.00;57.60
75738;DHT22;64356;45.638;13.764;2023-03-25T06:17:39;21.00;57.70
75738;DHT22;64356;45.638;13.764;2023-03-25T06:20:06;21.00;57.70
75738;DHT22;64356;45.638;13.764;2023-03-25T06:22:38;21.00;57.70
75738;DHT22;64356;45.638;13.764;2023-03-25T06:25:04;21.00;57.70
75738;DHT22;64356;45.638;13.764;2023-03-25T06:27:30;21.00;57.70
75738;DHT22;64356;45.638;13.764;2023-03-25T06:30:02;21.00;57.70
75738;DHT22;64356;45.638;13.764;2023-03-25T06:32:28;21.00;57.60
75738;DHT22;64356;45.638;13.764;2023-03-25T06:34:55;21.00;57.50
75738;DHT22;64356;45.638;13.764;2023-03-25T06:37:20;21.00;57.40
75738;DHT22;64356;45.638;13.764;2023-03-25T06:39:50;21.00;57.40
75738;DHT22;64356;45.638;13.764;2023-03-25T06:42:22;21.00;57.30
75738;DHT22;64356;45.638;13.764;2023-03-25T06:44:48;21.00;57.40
75738;DHT22;64356;45.638;13.764;2023-03-25T06:47:14;21.00;57.30
75738;DHT22;64356;45.638;13.764;2023-03-25T06:49:40;21.10;57.30
75738;DHT22;64356;45.638;13.764;2023-03-25T06:52:06;21.00;56.80
75738;DHT22;64356;45.638;13.764;2023-03-25T06:54:31;21.00;56.60
75738;DHT22;64356;45.638;13.764;2023-03-25T06:56:57;21.00;56.50
75738;DHT22;64356;45.638;13.764;2023-03-25T06:59:23;21.00;55.30
75738;DHT22;64356;45.638;13.764;2023-03-25T07:01:49;21.00;54.70
75738;DHT22;64356;45.638;13.764;2023-03-25T07:04:15;21.00;53.70
75738;DHT22;64356;45.638;13.764;2023-03-25T07:06:40;21.00;53.10
75738;DHT22;64356;45.638;13.764;2023-03-25T07:09:07;20.90;53.10
75738;DHT22;64356;45.638;13.764;2023-03-25T07:11:33;20.90;53.30
75738;DHT22;64356;45.638;13.764;2023-03-25T07:13:59;20.90;53.80
75738;DHT22;64356;45.638;13.764;2023-03-25T07:16:25;20.90;54.00
75738;DHT22;64356;45.638;13.764;2023-03-25T07:18:51;20.90;54.10
75738;DHT22;64356;45.638;13.764;2023-03-25T07:21:19;20.90;54.10
75738;DHT22;64356;45.638;13.764;2023-03-25T07:23:45;20.90;54.00
75738;DHT22;64356;45.638;13.764;2023-03-25T07:26:11;20.90;53.80
75738;DHT22;64356;45.638;13.764;2023-03-25T07:28:38;21.00;53.50
75738;DHT22;64356;45.638;13.764;2023-03-25T07:31:09;21.00;53.30
75738;DHT22;64356;45.638;13.764;2023-03-25T07:33:35;21.00;53.00
75738;DHT22;64356;45.638;13.764;2023-03-25T07:36:01;21.10;52.70
75738;DHT22;64356;45.638;13.764;2023-03-25T07:38:27;21.20;52.60
75738;DHT22;64356;45.638;13.764;2023-03-25T07:40:52;21.20;52.80
75738;DHT22;64356;45.638;13.764;2023-03-25T07:43:18;21.30;53.00
75738;DHT22;64356;45.638;13.764;2023-03-25T07:45:44;21.30;52.60
75738;DHT22;64356;45.638;13.764;2023-03-25T07:48:09;21.40;52.90
75738;DHT22;64356;45.638;13.764;2023-03-25T07:50:39;21.40;53.00
75738;DHT22;64356;45.638;13.764;2023-03-25T07:53:05;21.50;53.00
75738;DHT22;64356;45.638;13.764;2023-03-25T07:55:31;21.50;52.80
75738;DHT22;64356;45.638;13.764;2023-03-25T07:57:57;21.50;53.10
75738;DHT22;64356;45.638;13.764;2023-03-25T08:00:25;21.60;53.20
75738;DHT22;64356;45.638;13.764;2023-03-25T08:02:51;21.60;53.20
75738;DHT22;64356;45.638;13.764;2023-03-25T08:05:17;21.60;53.30
75738;DHT22;64356;45.638;13.764;2023-03-25T08:07:49;21.60;53.20
75738;DHT22;64356;45.638;13.764;2023-03-25T08:10:16;21.60;53.30
75738;DHT22;64356;45.638;13.764;2023-03-25T08:12:43;21.70;53.60
75738;DHT22;64356;45.638;13.764;2023-03-25T08:15:09;21.70;53.40
75738;DHT22;64356;45.638;13.764;2023-03-25T08:17:36;21.70;53.50
75738;DHT22;64356;45.638;13.764;2023-03-25T08:20:03;21.70;53.20
75738;DHT22;64356;45.638;13.764;2023-03-25T08:22:30;21.70;53.40
75738;DHT22;64356;45.638;13.764;2023-03-25T08:24:56;21.80;53.60
75738;DHT22;64356;45.638;13.764;2023-03-25T08:27:22;21.80;53.70
75738;DHT22;64356;45.638;13.764;2023-03-25T08:29:48;21.80;53.50
75738;DHT22;64356;45.638;13.764;2023-03-25T08:32:26;21.80;53.70
75738;DHT22;64356;45.638;13.764;2023-03-25T08:34:53;21.80;53.50
75738;DHT22;64356;45.638;13.764;2023-03-25T08:37:19;21.80;53.40
75738;DHT22;64356;45.638;13.764;2023-03-25T08:39:46;21.80;54.70
75738;DHT22;64356;45.638;13.764;2023-03-25T08:42:15;21.90;54.40
75738;DHT22;64356;45.638;13.764;2023-03-25T08:44:41;21.90;54.20
75738;DHT22;64356;45.638;13.764;2023-03-25T08:47:07;21.90;54.30
75738;DHT22;64356;45.638;13.764;2023-03-25T08:49:33;21.90;54.30
75738;DHT22;64356;45.638;13.764;2023-03-25T08:51:59;22.00;54.30
75738;DHT22;64356;45.638;13.764;2023-03-25T08:54:26;22.00;54.30
75738;DHT22;64356;45.638;13.764;2023-03-25T08:56:52;22.00;54.20
75738;DHT22;64356;45.638;13.764;2023-03-25T08:59:18;22.00;54.20
75738;DHT22;64356;45.638;13.764;2023-03-25T09:01:44;22.00;54.00
75738;DHT22;64356;45.638;13.764;2023-03-25T09:04:10;22.00;53.80
75738;DHT22;64356;45.638;13.764;2023-03-25T09:06:36;22.00;53.70
75738;DHT22;64356;45.638;13.764;2023-03-25T09:09:04;22.10;53.50
75738;DHT22;64356;45.638;13.764;2023-03-25T09:11:33;22.00;53.50
75738;DHT22;64356;45.638;13.764;2023-03-25T09:14:00;22.00;53.00
75738;DHT22;64356;45.638;13.764;2023-03-25T09:16:29;22.10;52.80
75738;DHT22;64356;45.638;13.764;2023-03-25T09:18:55;22.10;52.90
75738;DHT22;64356;45.638;13.764;2023-03-25T09:21:20;22.10;52.60
75738;DHT22;64356;45.638;13.764;2023-03-25T09:23:46;22.10;52.30
75738;DHT22;64356;45.638;13.764;2023-03-25T09:26:12;22.10;52.30
75738;DHT22;64356;45.638;13.764;2023-03-25T09:28:37;22.10;52.30
75738;DHT22;64356;45.638;13.764;2023-03-25T09:31:03;22.10;52.40
75738;DHT22;64356;45.638;13.764;2023-03-25T09:33:29;22.10;52.90
75738;DHT22;64356;45.638;13.764;2023-03-25T09:35:55;22.10;53.20
75738;DHT22;64356;45.638;13.764;2023-03-25T09:38:20;22.10;53.40
75738;DHT22;64356;45.638;13.764;2023-03-25T09:40:47;22.10;53.40
75738;DHT22;64356;45.638;13.764;2023-03-25T09:45:51;22.20;53.20
75738;DHT22;64356;45.638;13.764;2023-03-25T09:53:42;22.20;53.30
75738;DHT22;64356;45.638;13.764;2023-03-25T09:56:19;22.30;53.50
75738;DHT22;64356;45.638;13.764;2023-03-25T09:58:47;22.30;53.60
75738;DHT22;64356;45.638;13.764;2023-03-25T10:01:18;22.30;53.60
75738;DHT22;64356;45.638;13.764;2023-03-25T10:06:24;22.30;53.40
75738;DHT22;64356;45.638;13.764;2023-03-25T10:09:30;22.40;53.10
75738;DHT22;64356;45.638;13.764;2023-03-25T10:12:00;22.40;53.20
75738;DHT22;64356;45.638;13.764;2023-03-25T10:14:39;22.40;53.10
75738;DHT22;64356;45.638;13.764;2023-03-25T10:25:05;22.50;51.30
75738;DHT22;64356;45.638;13.764;2023-03-25T10:27:36;22.40;50.50
75738;DHT22;64356;45.638;13.764;2023-03-25T10:32:54;22.40;50.40
75738;DHT22;64356;45.638;13.764;2023-03-25T10:35:34;22.30;50.40
75738;DHT22;64356;45.638;13.764;2023-03-25T10:38:13;22.30;50.50
75738;DHT22;64356;45.638;13.764;2023-03-25T10:40:44;22.30;50.50
75738;DHT22;64356;45.638;13.764;2023-03-25T10:43:35;22.30;50.40
75738;DHT22;64356;45.638;13.764;2023-03-25T10:48:50;22.30;50.60
75738;DHT22;64356;45.638;13.764;2023-03-25T10:51:19;22.20;50.60
75738;DHT22;64356;45.638;13.764;2023-03-25T10:53:47;22.20;50.80
75738;DHT22;64356;45.638;13.764;2023-03-25T10:56:20;22.30;51.40
75738;DHT22;64356;45.638;13.764;2023-03-25T10:58:51;22.30;51.00
75738;DHT22;64356;45.638;13.764;2023-03-25T11:01:19;22.30;50.70
75738;DHT22;64356;45.638;13.764;2023-03-25T11:03:49;22.30;50.60
75738;DHT22;64356;45.638;13.764;2023-03-25T11:06:37;22.30;50.50
75738;DHT22;64356;45.638;13.764;2023-03-25T11:09:24;22.30;50.50
75738;DHT22;64356;45.638;13.764;2023-03-25T11:11:51;22.30;51.30
75738;DHT22;64356;45.638;13.764;2023-03-25T11:14:22;22.30;51.70
75738;DHT22;64356;45.638;13.764;2023-03-25T11:16:54;22.30;51.10
75738;DHT22;64356;45.638;13.764;2023-03-25T11:22:30;22.20;51.00
75738;DHT22;64356;45.638;13.764;2023-03-25T11:25:03;22.20;51.10
75738;DHT22;64356;45.638;13.764;2023-03-25T11:27:43;22.20;51.20
75738;DHT22;64356;45.638;13.764;2023-03-25T11:30:15;22.20;51.30
75738;DHT22;64356;45.638;13.764;2023-03-25T11:32:41;22.20;51.40
75738;DHT22;64356;45.638;13.764;2023-03-25T11:35:21;22.20;51.60
75738;DHT22;64356;45.638;13.764;2023-03-25T11:37:56;22.10;52.00
75738;DHT22;64356;45.638;13.764;2023-03-25T11:40:23;22.10;52.10
75738;DHT22;64356;45.638;13.764;2023-03-25T11:42:55;22.10;52.30
75738;DHT22;64356;45.638;13.764;2023-03-25T11:45:41;22.10;52.70
75738;DHT22;64356;45.638;13.764;2023-03-25T11:48:23;22.10;52.70
75738;DHT22;64356;45.638;13.764;2023-03-25T11:50:56;22.10;52.60
75738;DHT22;64356;45.638;13.764;2023-03-25T11:53:25;22.00;52.40
75738;DHT22;64356;45.638;13.764;2023-03-25T11:55:57;22.00;51.90
75738;DHT22;64356;45.638;13.764;2023-03-25T11:58:29;22.00;51.90
75738;DHT22;64356;45.638;13.764;2023-03-25T12:03:29;21.90;51.50
75738;DHT22;64356;45.638;13.764;2023-03-25T12:08:23;21.90;51.40
75738;DHT22;64356;45.638;13.764;2023-03-25T12:26:52;21.90;52.00
75738;DHT22;64356;45.638;13.764;2023-03-25T12:35:07;21.80;51.80
75738;DHT22;64356;45.638;13.764;2023-03-25T12:40:45;21.80;52.00
75738;DHT22;64356;45.638;13.764;2023-03-25T12:46:50;21.80;52.30
75738;DHT22;64356;45.638;13.764;2023-03-25T12:49:18;21.80;52.30
75738;DHT22;64356;45.638;13.764;2023-03-25T12:51:50;21.70;52.40
75738;DHT22;64356;45.638;13.764;2023-03-25T13:03:41;21.70;52.90
75738;DHT22;64356;45.638;13.764;2023-03-25T13:06:21;21.70;53.00
75738;DHT22;64356;45.638;13.764;2023-03-25T13:11:32;21.70;53.20
75738;DHT22;64356;45.638;13.764;2023-03-25T13:14:06;21.60;53.20
75738;DHT22;64356;45.638;13.764;2023-03-25T13:16:35;21.60;53.20
75738;DHT22;64356;45.638;13.764;2023-03-25T13:19:23;21.60;53.20
75738;DHT22;64356;45.638;13.764;2023-03-25T13:21:54;21.60;53.20
75738;DHT22;64356;45.638;13.764;2023-03-25T13:24:42;21.60;53.40
75738;DHT22;64356;45.638;13.764;2023-03-25T13:27:11;21.60;53.30
75738;DHT22;64356;45.638;13.764;2023-03-25T13:29:53;21.50;53.30
75738;DHT22;64356;45.638;13.764;2023-03-25T13:34:55;21.50;53.30
75738;DHT22;64356;45.638;13.764;2023-03-25T13:37:25;21.50;53.40
75738;DHT22;64356;45.638;13.764;2023-03-25T13:45:16;21.60;53.30
75738;DHT22;64356;45.638;13.764;2023-03-25T13:47:46;21.60;53.40
75738;DHT22;64356;45.638;13.764;2023-03-25T13:50:26;21.50;53.40
75738;DHT22;64356;45.638;13.764;2023-03-25T13:53:03;21.60;53.50
75738;DHT22;64356;45.638;13.764;2023-03-25T13:55:39;21.50;53.50
75738;DHT22;64356;45.638;13.764;2023-03-25T13:58:30;21.50;53.60
75738;DHT22;64356;45.638;13.764;2023-03-25T14:12:10;21.70;53.30
75738;DHT22;64356;45.638;13.764;2023-03-25T14:17:24;21.70;53.30
75738;DHT22;64356;45.638;13.764;2023-03-25T14:19:53;21.60;53.30
75738;DHT22;64356;45.638;13.764;2023-03-25T14:22:26;21.60;53.30
75738;DHT22;64356;45.638;13.764;2023-03-25T14:24:53;21.70;53.30
75738;DHT22;64356;45.638;13.764;2023-03-25T14:27:26;21.70;53.20
75738;DHT22;64356;45.638;13.764;2023-03-25T14:30:01;21.70;53.30
75738;DHT22;64356;45.638;13.764;2023-03-25T14:32:32;21.70;53.30
75738;DHT22;64356;45.638;13.764;2023-03-25T14:38:19;21.70;53.40
75738;DHT22;64356;45.638;13.764;2023-03-25T14:40:48;21.60;53.40
75738;DHT22;64356;45.638;13.764;2023-03-25T14:43:32;21.60;53.50
75738;DHT22;64356;45.638;13.764;2023-03-25T14:46:04;21.60;53.70
75738;DHT22;64356;45.638;13.764;2023-03-25T14:48:40;21.60;53.70
75738;DHT22;64356;45.638;13.764;2023-03-25T14:54:14;21.50;53.90
75738;DHT22;64356;45.638;13.764;2023-03-25T14:59:41;21.40;53.90
75738;DHT22;64356;45.638;13.764;2023-03-25T15:02:16;21.40;54.00
75738;DHT22;64356;45.638;13.764;2023-03-25T15:04:43;21.40;54.10
75738;DHT22;64356;45.638;13.764;2023-03-25T15:07:17;21.40;54.10
75738;DHT22;64356;45.638;13.764;2023-03-25T15:09:49;21.40;54.10
75738;DHT22;64356;45.638;13.764;2023-03-25T15:12:20;21.40;54.10
75738;DHT22;64356;45.638;13.764;2023-03-25T15:14:50;21.30;54.10
75738;DHT22;64356;45.638;13.764;2023-03-25T15:17:38;21.40;54.20
75738;DHT22;64356;45.638;13.764;2023-03-25T15:22:34;21.30;54.20
75738;DHT22;64356;45.638;13.764;2023-03-25T15:25:02;21.40;54.20
75738;DHT22;64356;45.638;13.764;2023-03-25T15:27:40;21.30;54.20
75738;DHT22;64356;45.638;13.764;2023-03-25T15:33:11;21.30;54.20
75738;DHT22;64356;45.638;13.764;2023-03-25T15:38:51;21.40;54.20
75738;DHT22;64356;45.638;13.764;2023-03-25T15:55:48;21.40;54.10
75738;DHT22;64356;45.638;13.764;2023-03-25T16:00:52;21.40;54.10
75738;DHT22;64356;45.638;13.764;2023-03-25T16:03:23;21.30;54.10
75738;DHT22;64356;45.638;13.764;2023-03-25T16:06:00;21.30;54.10
75738;DHT22;64356;45.638;13.764;2023-03-25T16:08:35;21.30;54.10
75738;DHT22;64356;45.638;13.764;2023-03-25T16:13:47;21.40;54.20
75738;DHT22;64356;45.638;13.764;2023-03-25T16:16:24;21.30;54.10
75738;DHT22;64356;45.638;13.764;2023-03-25T16:18:53;21.30;54.10
75738;DHT22;64356;45.638;13.764;2023-03-25T16:21:20;21.30;54.10
75738;DHT22;64356;45.638;13.764;2023-03-25T16:23:51;21.30;54.10
75738;DHT22;64356;45.638;13.764;2023-03-25T16:26:32;21.30;54.10
75738;DHT22;64356;45.638;13.764;2023-03-25T16:29:06;21.30;54.20
75738;DHT22;64356;45.638;13.764;2023-03-25T16:31:33;21.30;54.10
75738;DHT22;64356;45.638;13.764;2023-03-25T16:34:13;21.30;54.20
75738;DHT22;64356;45.638;13.764;2023-03-25T16:36:42;21.30;54.20
75738;DHT22;64356;45.638;13.764;2023-03-25T16:39:12;21.30;54.30
75738;DHT22;64356;45.638;13.764;2023-03-25T16:41:42;21.30;54.30
75738;DHT22;64356;45.638;13.764;2023-03-25T16:44:20;21.30;54.30
75738;DHT22;64356;45.638;13.764;2023-03-25T16:46:46;21.30;54.30
75738;DHT22;64356;45.638;13.764;2023-03-25T16:49:18;21.20;54.30
75738;DHT22;64356;45.638;13.764;2023-03-25T16:51:46;21.30;54.40
75738;DHT22;64356;45.638;13.764;2023-03-25T16:54:32;21.20;54.40
75738;DHT22;64356;45.638;13.764;2023-03-25T16:56:59;21.20;54.40
75738;DHT22;64356;45.638;13.764;2023-03-25T16:59:34;21.20;54.50
75738;DHT22;64356;45.638;13.764;2023-03-25T17:02:01;21.20;54.50
75738;DHT22;64356;45.638;13.764;2023-03-25T17:04:38;21.20;54.50
75738;DHT22;64356;45.638;13.764;2023-03-25T17:07:17;21.20;54.50
75738;DHT22;64356;45.638;13.764;2023-03-25T17:09:50;21.20;54.50
75738;DHT22;64356;45.638;13.764;2023-03-25T17:12:19;21.20;54.50
75738;DHT22;64356;45.638;13.764;2023-03-25T17:14:47;21.20;54.60
75738;DHT22;64356;45.638;13.764;2023-03-25T17:20:11;21.20;54.60
75738;DHT22;64356;45.638;13.764;2023-03-25T17:22:40;21.20;54.60
75738;DHT22;64356;45.638;13.764;2023-03-25T17:25:28;21.20;54.70
75738;DHT22;64356;45.638;13.764;2023-03-25T17:28:03;21.10;54.60
75738;DHT22;64356;45.638;13.764;2023-03-25T17:30:43;21.10;54.60
75738;DHT22;64356;45.638;13.764;2023-03-25T17:33:18;21.10;54.60
75738;DHT22;64356;45.638;13.764;2023-03-25T17:35:52;21.10;55.10
75738;DHT22;64356;45.638;13.764;2023-03-25T17:38:28;21.10;54.60
75738;DHT22;64356;45.638;13.764;2023-03-25T17:41:06;21.10;54.50
75738;DHT22;64356;45.638;13.764;2023-03-25T17:43:34;21.10;54.50
75738;DHT22;64356;45.638;13.764;2023-03-25T17:46:04;21.10;54.50
75738;DHT22;64356;45.638;13.764;2023-03-25T17:48:30;21.10;54.50
75738;DHT22;64356;45.638;13.764;2023-03-25T17:50:57;21.10;54.50
75738;DHT22;64356;45.638;13.764;2023-03-25T17:53:23;21.10;54.60
75738;DHT22;64356;45.638;13.764;2023-03-25T17:55:50;21.10;54.50
75738;DHT22;64356;45.638;13.764;2023-03-25T17:58:17;21.10;54.50
75738;DHT22;64356;45.638;13.764;2023-03-25T18:00:44;21.10;54.50
75738;DHT22;64356;45.638;13.764;2023-03-25T18:03:19;21.10;54.40
75738;DHT22;64356;45.638;13.764;2023-03-25T18:05:50;21.10;54.50
75738;DHT22;64356;45.638;13.764;2023-03-25T18:08:22;21.10;54.50
75738;DHT22;64356;45.638;13.764;2023-03-25T18:10:49;21.10;54.50
75738;DHT22;64356;45.638;13.764;2023-03-25T18:13:16;21.10;54.50
75738;DHT22;64356;45.638;13.764;2023-03-25T18:15:42;21.10;54.50
75738;DHT22;64356;45.638;13.764;2023-03-25T18:18:12;21.10;54.40
75738;DHT22;64356;45.638;13.764;2023-03-25T18:20:39;21.00;54.40